sensor_id;sensor_type;location;lat;lon;timestamp;P1;durP1;ratioP1;P2;durP2;ratioP2
34471;SDS011;20710;49.976;19.836;2023-11-21T00:03:02;6.30;;;3.80;;
34471;SDS011;20710;49.976;19.836;2023-11-21T00:09:06;9.00;;;4.60;;
34471;SDS011;20710;49.976;19.836;2023-11-21T00:15:10;9.50;;;4.50;;
34471;SDS011;20710;49.976;19.836;2023-11-21T00:21:15;8.80;;;5.30;;
34471;SDS011;20710;49.976;19.836;2023-11-21T00:27:17;9.60;;;5.80;;
34471;SDS011;20710;49.976;19.836;2023-11-21T00:33:19;11.70;;;6.80;;
34471;SDS011;20710;49.976;19.836;2023-11-21T00:39:22;12.90;;;9.60;;
34471;SDS011;20710;49.976;19.836;2023-11-21T00:58:21;14.70;;;9.20;;
34471;SDS011;20710;49.976;19.836;2023-11-21T01:04:23;15.50;;;9.10;;
34471;SDS011;20710;49.976;19.836;2023-11-21T01:10:27;11.30;;;5.50;;
34471;SDS011;20710;49.976;19.836;2023-11-21T01:16:30;7.80;;;5.50;;
34471;SDS011;20710;49.976;19.836;2023-11-21T01:22:46;8.90;;;5.60;;
34471;SDS011;20710;49.976;19.836;2023-11-21T01:35:35;10.80;;;6.40;;
34471;SDS011;20710;49.976;19.836;2023-11-21T01:41:38;18.90;;;9.20;;
34471;SDS011;20710;49.976;19.836;2023-11-21T01:47:40;20.80;;;14.10;;
34471;SDS011;20710;49.976;19.836;2023-11-21T01:53:43;20.50;;;11.40;;
34471;SDS011;20710;49.976;19.836;2023-11-21T01:59:56;14.70;;;10.00;;
34471;SDS011;20710;49.976;19.836;2023-11-21T02:26:50;19.70;;;8.30;;
34471;SDS011;20710;49.976;19.836;2023-11-21T02:32:53;19.30;;;8.00;;
34471;SDS011;20710;49.976;19.836;2023-11-21T02:39:04;15.40;;;7.90;;
34471;SDS011;20710;49.976;19.836;2023-11-21T02:45:07;24.50;;;11.10;;
34471;SDS011;20710;49.976;19.836;2023-11-21T02:51:10;22.60;;;11.10;;
34471;SDS011;20710;49.976;19.836;2023-11-21T02:57:14;11.00;;;6.70;;
34471;SDS011;20710;49.976;19.836;2023-11-21T03:03:17;7.20;;;4.50;;
34471;SDS011;20710;49.976;19.836;2023-11-21T03:09:31;9.60;;;4.90;;
34471;SDS011;20710;49.976;19.836;2023-11-21T03:15:33;14.20;;;6.10;;
34471;SDS011;20710;49.976;19.836;2023-11-21T03:42:06;10.80;;;4.50;;
34471;SDS011;20710;49.976;19.836;2023-11-21T03:48:08;8.60;;;4.00;;
34471;SDS011;20710;49.976;19.836;2023-11-21T03:54:24;10.70;;;5.30;;
34471;SDS011;20710;49.976;19.836;2023-11-21T04:00:41;10.30;;;4.90;;
34471;SDS011;20710;49.976;19.836;2023-11-21T04:06:43;9.40;;;4.80;;
34471;SDS011;20710;49.976;19.836;2023-11-21T04:12:45;21.60;;;7.00;;
34471;SDS011;20710;49.976;19.836;2023-11-21T04:18:48;14.40;;;8.10;;
34471;SDS011;20710;49.976;19.836;2023-11-21T04:24:50;11.60;;;6.70;;
34471;SDS011;20710;49.976;19.836;2023-11-21T04:30:52;8.40;;;5.10;;
34471;SDS011;20710;49.976;19.836;2023-11-21T04:36:54;12.40;;;5.80;;
34471;SDS011;20710;49.976;19.836;2023-11-21T04:42:56;7.30;;;4.90;;
34471;SDS011;20710;49.976;19.836;2023-11-21T04:48:59;12.20;;;5.60;;
34471;SDS011;20710;49.976;19.836;2023-11-21T04:55:01;9.30;;;5.80;;
34471;SDS011;20710;49.976;19.836;2023-11-21T05:01:04;13.10;;;5.90;;
34471;SDS011;20710;49.976;19.836;2023-11-21T05:07:06;14.40;;;6.70;;
34471;SDS011;20710;49.976;19.836;2023-11-21T05:13:08;11.00;;;6.90;;
34471;SDS011;20710;49.976;19.836;2023-11-21T05:19:21;13.00;;;7.60;;
34471;SDS011;20710;49.976;19.836;2023-11-21T05:25:23;12.10;;;7.50;;
34471;SDS011;20710;49.976;19.836;2023-11-21T05:31:26;13.60;;;7.40;;
34471;SDS011;20710;49.976;19.836;2023-11-21T05:37:28;13.30;;;7.60;;
34471;SDS011;20710;49.976;19.836;2023-11-21T05:43:31;14.90;;;8.40;;
34471;SDS011;20710;49.976;19.836;2023-11-21T05:49:36;14.10;;;8.10;;
34471;SDS011;20710;49.976;19.836;2023-11-21T05:55:38;13.70;;;8.80;;
34471;SDS011;20710;49.976;19.836;2023-11-21T06:01:41;19.50;;;10.10;;
34471;SDS011;20710;49.976;19.836;2023-11-21T06:07:43;19.10;;;11.00;;
34471;SDS011;20710;49.976;19.836;2023-11-21T06:13:45;19.20;;;12.50;;
34471;SDS011;20710;49.976;19.836;2023-11-21T06:19:47;20.20;;;12.70;;
34471;SDS011;20710;49.976;19.836;2023-11-21T06:25:48;19.80;;;12.80;;
34471;SDS011;20710;49.976;19.836;2023-11-21T06:31:51;21.70;;;14.20;;
34471;SDS011;20710;49.976;19.836;2023-11-21T06:37:53;18.80;;;12.30;;
34471;SDS011;20710;49.976;19.836;2023-11-21T06:43:55;29.40;;;14.20;;
34471;SDS011;20710;49.976;19.836;2023-11-21T06:50:03;22.90;;;13.00;;
34471;SDS011;20710;49.976;19.836;2023-11-21T06:56:14;25.70;;;14.80;;
34471;SDS011;20710;49.976;19.836;2023-11-21T07:02:17;22.80;;;14.00;;
34471;SDS011;20710;49.976;19.836;2023-11-21T07:08:25;29.10;;;15.00;;
34471;SDS011;20710;49.976;19.836;2023-11-21T07:14:27;18.20;;;11.70;;
34471;SDS011;20710;49.976;19.836;2023-11-21T07:20:29;19.00;;;12.00;;
34471;SDS011;20710;49.976;19.836;2023-11-21T07:26:32;14.30;;;10.50;;
34471;SDS011;20710;49.976;19.836;2023-11-21T07:32:34;18.10;;;10.10;;
34471;SDS011;20710;49.976;19.836;2023-11-21T07:38:36;16.20;;;10.00;;
34471;SDS011;20710;49.976;19.836;2023-11-21T07:44:39;14.20;;;9.80;;
34471;SDS011;20710;49.976;19.836;2023-11-21T07:50:41;16.30;;;10.50;;
34471;SDS011;20710;49.976;19.836;2023-11-21T07:56:43;18.50;;;10.70;;
34471;SDS011;20710;49.976;19.836;2023-11-21T08:02:46;22.80;;;11.40;;
34471;SDS011;20710;49.976;19.836;2023-11-21T08:08:48;18.70;;;12.00;;
34471;SDS011;20710;49.976;19.836;2023-11-21T08:14:50;21.40;;;12.10;;
34471;SDS011;20710;49.976;19.836;2023-11-21T08:20:52;20.30;;;12.60;;
34471;SDS011;20710;49.976;19.836;2023-11-21T08:26:56;18.20;;;11.50;;
34471;SDS011;20710;49.976;19.836;2023-11-21T08:33:00;24.70;;;12.70;;
34471;SDS011;20710;49.976;19.836;2023-11-21T08:39:02;22.00;;;12.50;;
34471;SDS011;20710;49.976;19.836;2023-11-21T08:45:08;18.20;;;11.50;;
34471;SDS011;20710;49.976;19.836;2023-11-21T08:51:10;24.40;;;12.10;;
34471;SDS011;20710;49.976;19.836;2023-11-21T08:57:16;19.60;;;11.40;;
34471;SDS011;20710;49.976;19.836;2023-11-21T09:03:18;17.50;;;11.20;;
34471;SDS011;20710;49.976;19.836;2023-11-21T09:09:20;18.30;;;10.80;;
34471;SDS011;20710;49.976;19.836;2023-11-21T09:15:22;19.90;;;11.00;;
34471;SDS011;20710;49.976;19.836;2023-11-21T09:21:24;25.60;;;12.30;;
34471;SDS011;20710;49.976;19.836;2023-11-21T09:27:27;23.30;;;13.00;;
34471;SDS011;20710;49.976;19.836;2023-11-21T09:33:29;21.00;;;12.70;;
34471;SDS011;20710;49.976;19.836;2023-11-21T09:39:35;22.70;;;12.30;;
34471;SDS011;20710;49.976;19.836;2023-11-21T09:45:37;21.00;;;12.50;;
34471;SDS011;20710;49.976;19.836;2023-11-21T09:51:43;16.00;;;10.70;;
34471;SDS011;20710;49.976;19.836;2023-11-21T09:57:46;17.80;;;10.70;;
34471;SDS011;20710;49.976;19.836;2023-11-21T10:03:51;20.60;;;10.80;;
34471;SDS011;20710;49.976;19.836;2023-11-21T10:09:54;16.70;;;9.70;;
34471;SDS011;20710;49.976;19.836;2023-11-21T10:16:01;20.80;;;11.30;;
34471;SDS011;20710;49.976;19.836;2023-11-21T10:22:07;19.80;;;11.00;;
34471;SDS011;20710;49.976;19.836;2023-11-21T10:28:09;20.10;;;9.80;;
34471;SDS011;20710;49.976;19.836;2023-11-21T10:34:12;17.50;;;10.40;;
34471;SDS011;20710;49.976;19.836;2023-11-21T10:40:18;20.10;;;9.00;;
34471;SDS011;20710;49.976;19.836;2023-11-21T10:53:19;12.90;;;8.20;;
34471;SDS011;20710;49.976;19.836;2023-11-21T10:59:22;15.70;;;7.80;;
34471;SDS011;20710;49.976;19.836;2023-11-21T11:05:27;11.20;;;6.90;;
34471;SDS011;20710;49.976;19.836;2023-11-21T11:11:34;16.60;;;6.30;;
34471;SDS011;20710;49.976;19.836;2023-11-21T11:17:40;12.60;;;6.50;;
34471;SDS011;20710;49.976;19.836;2023-11-21T11:36:02;12.50;;;6.90;;
34471;SDS011;20710;49.976;19.836;2023-11-21T11:48:37;15.60;;;8.30;;
34471;SDS011;20710;49.976;19.836;2023-11-21T11:54:43;16.00;;;8.00;;
34471;SDS011;20710;49.976;19.836;2023-11-21T12:00:45;14.60;;;7.00;;
34471;SDS011;20710;49.976;19.836;2023-11-21T12:13:31;14.60;;;6.40;;
34471;SDS011;20710;49.976;19.836;2023-11-21T12:19:33;19.10;;;7.80;;
34471;SDS011;20710;49.976;19.836;2023-11-21T12:25:35;15.40;;;7.90;;
34471;SDS011;20710;49.976;19.836;2023-11-21T12:31:38;14.40;;;7.20;;
34471;SDS011;20710;49.976;19.836;2023-11-21T12:37:41;14.50;;;7.70;;
34471;SDS011;20710;49.976;19.836;2023-11-21T12:43:49;13.80;;;7.40;;
34471;SDS011;20710;49.976;19.836;2023-11-21T12:49:51;11.10;;;7.10;;
34471;SDS011;20710;49.976;19.836;2023-11-21T13:30:24;16.00;;;9.50;;
34471;SDS011;20710;49.976;19.836;2023-11-21T13:37:48;14.50;;;9.60;;
34471;SDS011;20710;49.976;19.836;2023-11-21T13:43:54;15.80;;;10.30;;
34471;SDS011;20710;49.976;19.836;2023-11-21T13:50:05;15.60;;;9.90;;
34471;SDS011;20710;49.976;19.836;2023-11-21T13:56:15;16.90;;;11.10;;
34471;SDS011;20710;49.976;19.836;2023-11-21T14:08:53;27.70;;;16.30;;
34471;SDS011;20710;49.976;19.836;2023-11-21T14:15:08;30.40;;;16.10;;
34471;SDS011;20710;49.976;19.836;2023-11-21T14:28:47;26.00;;;14.40;;
34471;SDS011;20710;49.976;19.836;2023-11-21T14:47:43;18.10;;;11.80;;
34471;SDS011;20710;49.976;19.836;2023-11-21T14:53:51;21.60;;;11.60;;
34471;SDS011;20710;49.976;19.836;2023-11-21T14:59:55;14.40;;;8.70;;
34471;SDS011;20710;49.976;19.836;2023-11-21T15:06:02;14.60;;;9.50;;
34471;SDS011;20710;49.976;19.836;2023-11-21T15:12:41;13.00;;;9.00;;
34471;SDS011;20710;49.976;19.836;2023-11-21T15:18:45;15.50;;;9.00;;
34471;SDS011;20710;49.976;19.836;2023-11-21T15:24:47;15.30;;;8.90;;
34471;SDS011;20710;49.976;19.836;2023-11-21T15:30:51;20.90;;;9.50;;
34471;SDS011;20710;49.976;19.836;2023-11-21T15:36:53;15.20;;;9.80;;
34471;SDS011;20710;49.976;19.836;2023-11-21T15:42:56;21.80;;;11.20;;
34471;SDS011;20710;49.976;19.836;2023-11-21T15:48:58;18.50;;;10.70;;
34471;SDS011;20710;49.976;19.836;2023-11-21T15:55:00;17.00;;;11.80;;
34471;SDS011;20710;49.976;19.836;2023-11-21T16:01:02;19.60;;;12.10;;
34471;SDS011;20710;49.976;19.836;2023-11-21T16:07:05;22.90;;;13.10;;
34471;SDS011;20710;49.976;19.836;2023-11-21T16:13:11;20.20;;;13.00;;
34471;SDS011;20710;49.976;19.836;2023-11-21T16:19:15;21.60;;;13.60;;
34471;SDS011;20710;49.976;19.836;2023-11-21T16:25:17;24.60;;;13.80;;
34471;SDS011;20710;49.976;19.836;2023-11-21T16:31:22;28.80;;;14.20;;
34471;SDS011;20710;49.976;19.836;2023-11-21T16:37:24;18.80;;;13.00;;
34471;SDS011;20710;49.976;19.836;2023-11-21T16:50:18;23.60;;;14.40;;
34471;SDS011;20710;49.976;19.836;2023-11-21T16:56:20;22.40;;;13.60;;
34471;SDS011;20710;49.976;19.836;2023-11-21T17:02:23;20.50;;;11.80;;
34471;SDS011;20710;49.976;19.836;2023-11-21T17:08:26;18.30;;;10.30;;
34471;SDS011;20710;49.976;19.836;2023-11-21T17:14:29;19.20;;;10.60;;
34471;SDS011;20710;49.976;19.836;2023-11-21T17:20:32;20.90;;;11.10;;
34471;SDS011;20710;49.976;19.836;2023-11-21T17:26:34;22.70;;;12.60;;
34471;SDS011;20710;49.976;19.836;2023-11-21T17:32:38;25.20;;;14.20;;
34471;SDS011;20710;49.976;19.836;2023-11-21T17:38:44;20.80;;;12.60;;
34471;SDS011;20710;49.976;19.836;2023-11-21T17:44:46;24.80;;;13.70;;
34471;SDS011;20710;49.976;19.836;2023-11-21T17:50:48;25.30;;;13.70;;
34471;SDS011;20710;49.976;19.836;2023-11-21T17:56:50;24.90;;;14.30;;
34471;SDS011;20710;49.976;19.836;2023-11-21T18:02:59;27.00;;;16.00;;
34471;SDS011;20710;49.976;19.836;2023-11-21T18:09:01;30.80;;;16.00;;
34471;SDS011;20710;49.976;19.836;2023-11-21T18:15:05;28.20;;;16.30;;
34471;SDS011;20710;49.976;19.836;2023-11-21T18:21:10;29.20;;;17.10;;
34471;SDS011;20710;49.976;19.836;2023-11-21T18:27:12;28.20;;;18.50;;
34471;SDS011;20710;49.976;19.836;2023-11-21T18:33:14;30.80;;;18.30;;
34471;SDS011;20710;49.976;19.836;2023-11-21T18:39:16;28.00;;;17.60;;
34471;SDS011;20710;49.976;19.836;2023-11-21T18:52:29;17.60;;;8.80;;
34471;SDS011;20710;49.976;19.836;2023-11-21T18:58:33;18.20;;;10.30;;
34471;SDS011;20710;49.976;19.836;2023-11-21T19:12:20;22.70;;;11.30;;
34471;SDS011;20710;49.976;19.836;2023-11-21T19:18:37;25.80;;;12.60;;
34471;SDS011;20710;49.976;19.836;2023-11-21T19:59:44;25.40;;;13.00;;
34471;SDS011;20710;49.976;19.836;2023-11-21T20:06:22;22.90;;;12.00;;
34471;SDS011;20710;49.976;19.836;2023-11-21T20:12:24;22.20;;;10.90;;
34471;SDS011;20710;49.976;19.836;2023-11-21T20:18:27;22.40;;;11.00;;
34471;SDS011;20710;49.976;19.836;2023-11-21T20:31:35;18.80;;;10.70;;
34471;SDS011;20710;49.976;19.836;2023-11-21T20:37:37;20.70;;;10.50;;
34471;SDS011;20710;49.976;19.836;2023-11-21T21:16:43;16.50;;;8.40;;
34471;SDS011;20710;49.976;19.836;2023-11-21T21:22:45;16.40;;;8.70;;
34471;SDS011;20710;49.976;19.836;2023-11-21T21:35:30;17.20;;;8.90;;
34471;SDS011;20710;49.976;19.836;2023-11-21T21:41:39;15.20;;;8.80;;
34471;SDS011;20710;49.976;19.836;2023-11-21T21:47:44;16.60;;;8.50;;
34471;SDS011;20710;49.976;19.836;2023-11-21T22:28:47;13.40;;;8.60;;
34471;SDS011;20710;49.976;19.836;2023-11-21T22:34:49;14.80;;;9.00;;
34471;SDS011;20710;49.976;19.836;2023-11-21T22:40:50;15.50;;;9.60;;
34471;SDS011;20710;49.976;19.836;2023-11-21T23:14:38;15.50;;;10.30;;
34471;SDS011;20710;49.976;19.836;2023-11-21T23:27:13;17.30;;;10.80;;
34471;SDS011;20710;49.976;19.836;2023-11-21T23:33:15;21.40;;;11.40;;
34471;SDS011;20710;49.976;19.836;2023-11-21T23:53:47;22.40;;;13.10;;
